createdAt,value
2016-08-28T00:15:39.394Z,93.56
2016-08-28T00:16:40.247Z,93.73
2016-08-28T00:17:52.066Z,93.88
2016-08-28T00:18:38.871Z,94.03
2016-08-28T00:19:23.989Z,93.83
2016-08-28T00:20:24.019Z,93.97
2016-08-28T00:21:24.843Z,93.79
2016-08-28T00:22:20.663Z,94.37
2016-08-28T00:23:30.359Z,94.46
2016-08-28T00:24:35.277Z,93.97
2016-08-28T00:25:30.089Z,93.90
2016-08-28T00:26:32.465Z,93.96
2016-08-28T00:27:44.391Z,94.33
2016-08-28T00:28:39.237Z,94.79
2016-08-28T00:29:34.896Z,94.76
2016-08-28T00:30:18.161Z,94.50
2016-08-28T00:31:33.975Z,94.69
2016-08-28T00:32:23.852Z,94.89
2016-08-28T00:33:31.239Z,95.49
2016-08-28T00:34:43.986Z,95.18
2016-08-28T00:35:28.735Z,95.22
2016-08-28T00:37:12.725Z,95.40
2016-08-28T00:37:37.758Z,95.92
2016-08-28T00:38:29.200Z,95.79
2016-08-28T00:39:32.485Z,95.06
2016-08-28T00:40:31.232Z,94.40
2016-08-28T00:41:17.907Z,94.29
2016-08-28T00:42:39.642Z,94.25
2016-08-28T00:43:26.344Z,94.48
2016-08-28T00:44:41.640Z,94.41
2016-08-28T00:45:27.487Z,94.37
2016-08-28T00:46:31.388Z,94.80
2016-08-28T00:47:18.259Z,95.05
2016-08-28T00:49:31.147Z,95.19
2016-08-28T00:50:25.375Z,95.11
2016-08-28T00:51:26.805Z,94.87
2016-08-28T00:52:33.070Z,94.70
2016-08-28T01:14:33.474Z,95.11
2016-08-28T01:15:35.104Z,95.14
2016-08-28T01:16:29.604Z,95.35
2016-08-28T01:18:53.105Z,95.93
2016-08-28T01:19:28.764Z,96.03
2016-08-28T01:21:32.504Z,96.07
2016-08-28T01:22:31.917Z,96.35
2016-08-28T01:24:33.387Z,96.14
2016-08-28T01:25:37.614Z,95.97
2016-08-28T01:26:31.279Z,96.16
2016-08-28T01:27:24.942Z,95.90
2016-08-28T01:35:33.977Z,94.98
2016-08-28T01:37:57.645Z,95.47
2016-08-28T01:38:28.244Z,95.58
2016-08-28T01:56:33.638Z,96.30
2016-08-28T01:57:27.492Z,96.40
2016-08-28T01:58:35.673Z,96.79
2016-08-28T02:14:30.981Z,98.38
2016-08-28T02:15:48.115Z,98.32
2016-08-28T02:18:35.598Z,97.28
2016-08-28T02:22:42.697Z,98.04
2016-08-28T02:24:36.224Z,97.78
2016-08-28T02:25:35.036Z,97.99
2016-08-28T02:26:28.176Z,98.01
2016-08-28T02:27:32.715Z,98.05
2016-08-28T02:28:51.034Z,97.95
2016-08-28T02:30:12.263Z,98.02
2016-08-28T02:30:41.273Z,97.95
2016-08-28T02:32:36.163Z,97.65
2016-08-28T02:42:39.030Z,98.05
2016-08-28T02:46:26.680Z,98.23
2016-08-28T02:52:54.993Z,98.88
2016-08-28T02:53:21.292Z,99.24
2016-08-28T02:54:30.102Z,98.91
2016-08-28T02:56:27.610Z,99.39
2016-08-28T02:57:24.848Z,99.28
2016-08-28T03:09:29.600Z,100.00
2016-08-28T03:17:29.999Z,100.00
2016-08-28T03:21:32.898Z,100.00
2016-08-28T03:22:22.297Z,100.00
2016-08-28T03:23:25.357Z,100.00
2016-08-28T03:24:34.172Z,100.00
2016-08-28T03:25:57.022Z,100.00
2016-08-28T03:26:31.159Z,100.00
2016-08-28T03:27:27.534Z,100.00
2016-08-28T03:28:39.232Z,100.00
2016-08-28T03:29:36.696Z,100.00
2016-08-28T03:30:27.601Z,100.00
2016-08-28T03:31:26.932Z,100.00
2016-08-28T03:32:29.176Z,100.00
2016-08-28T03:37:40.812Z,100.00
2016-08-28T03:38:26.401Z,100.00
2016-08-28T03:39:32.567Z,100.00
2016-08-28T03:41:34.343Z,100.00
2016-08-28T03:43:37.615Z,100.00
2016-08-28T03:44:44.964Z,100.00
2016-08-28T03:45:48.191Z,100.00
2016-08-28T03:46:30.436Z,100.00
2016-08-28T03:47:36.296Z,100.00
2016-08-28T03:48:23.657Z,100.00
2016-08-28T03:53:40.717Z,100.00
2016-08-28T03:54:42.452Z,100.00
2016-08-28T03:58:33.256Z,100.00
2016-08-28T04:00:08.451Z,100.00
2016-08-28T04:01:27.959Z,100.00
2016-08-28T04:27:29.858Z,100.00
2016-08-28T04:28:30.540Z,100.00
2016-08-28T04:29:57.308Z,100.00
2016-08-28T04:30:28.172Z,100.00
2016-08-28T04:34:32.048Z,100.00
2016-08-28T04:35:29.208Z,100.00
2016-08-28T04:37:30.408Z,100.00
2016-08-28T04:39:50.088Z,100.00
2016-08-28T04:48:32.437Z,100.00
2016-08-28T05:01:25.199Z,100.00
2016-08-28T05:03:29.980Z,100.00
2016-08-28T05:09:33.173Z,100.00
2016-08-28T05:16:11.659Z,100.00
2016-08-28T05:16:32.870Z,100.00
2016-08-28T05:17:32.671Z,100.00
2016-08-28T05:22:30.782Z,100.00
2016-08-28T05:23:25.213Z,100.00
2016-08-28T05:24:24.901Z,100.00
2016-08-28T05:26:25.874Z,100.00
2016-08-28T05:27:35.577Z,100.00
2016-08-28T05:28:40.173Z,100.00
2016-08-28T05:29:35.960Z,100.00
2016-08-28T05:31:27.163Z,100.00
2016-08-28T05:32:42.703Z,100.00
2016-08-28T05:35:26.477Z,100.00
2016-08-28T05:41:44.098Z,99.25
2016-08-28T05:42:37.073Z,98.95
2016-08-28T05:43:31.747Z,99.06
2016-08-28T05:44:51.205Z,98.79
2016-08-28T05:47:05.830Z,98.57
2016-08-28T05:47:32.318Z,98.69
2016-08-28T05:48:37.495Z,98.34
2016-08-28T05:49:49.777Z,98.24
2016-08-28T05:51:11.558Z,98.19
2016-08-28T05:51:33.836Z,98.10
2016-08-28T05:56:11.951Z,97.22
2016-08-28T05:56:36.653Z,97.19
2016-08-28T05:57:26.019Z,97.24
2016-08-28T05:58:38.127Z,96.78
2016-08-28T05:59:23.444Z,96.35
2016-08-28T06:00:38.710Z,96.57
2016-08-28T06:01:25.732Z,96.41
2016-08-28T06:02:27.763Z,96.06
2016-08-28T06:03:30.884Z,96.22
2016-08-28T06:04:35.968Z,96.13
2016-08-28T06:05:35.221Z,96.17
2016-08-28T06:06:51.241Z,96.24
2016-08-28T06:07:43.442Z,96.15
2016-08-28T06:08:30.335Z,95.45
2016-08-28T06:09:33.082Z,95.71
2016-08-28T06:10:31.003Z,95.60
2016-08-28T06:12:34.342Z,95.39
2016-08-28T06:14:11.945Z,94.86
2016-08-28T06:14:57.590Z,95.23
2016-08-28T06:15:29.245Z,95.35
2016-08-28T06:16:59.826Z,95.19
2016-08-28T06:17:35.559Z,95.10
2016-08-28T06:18:28.615Z,95.07
2016-08-28T06:19:42.388Z,95.17
2016-08-28T06:20:30.305Z,94.44
2016-08-28T06:21:40.679Z,94.66
2016-08-28T06:22:34.574Z,94.93
2016-08-28T06:23:36.180Z,94.28
2016-08-28T06:24:24.426Z,94.25
2016-08-28T06:26:25.965Z,94.22
2016-08-28T06:27:22.999Z,93.60
2016-08-28T06:28:35.328Z,93.44
2016-08-28T06:29:39.158Z,93.31
2016-08-28T06:31:44.364Z,93.09
2016-08-28T06:32:29.703Z,93.02
2016-08-28T06:33:29.990Z,92.68
2016-08-28T06:34:34.550Z,92.75
2016-08-28T06:35:31.122Z,92.23
2016-08-28T06:42:36.049Z,91.34
2016-08-28T06:47:48.124Z,91.23
2016-08-28T06:48:30.327Z,90.57
2016-08-28T06:50:34.544Z,89.84
2016-08-28T06:51:28.711Z,89.30
2016-08-28T06:52:35.307Z,89.37
2016-08-28T06:53:36.013Z,88.98
2016-08-28T06:54:41.441Z,88.93
2016-08-28T07:01:34.967Z,88.34
2016-08-28T07:02:32.227Z,87.22
2016-08-28T07:03:48.773Z,86.80
2016-08-28T07:04:33.567Z,86.43
2016-08-28T07:05:35.023Z,85.79
2016-08-28T07:06:28.577Z,86.16
2016-08-28T07:07:39.859Z,84.50
2016-08-28T07:08:39.021Z,84.50
2016-08-28T07:09:30.361Z,85.01
2016-08-28T07:10:24.163Z,84.81
2016-08-28T07:11:28.621Z,83.23
2016-08-28T07:12:39.306Z,83.24
2016-08-28T07:13:24.565Z,83.40
2016-08-28T07:14:38.330Z,83.40
2016-08-28T07:15:29.390Z,83.39
2016-08-28T07:16:27.284Z,82.02
2016-08-28T07:17:42.792Z,80.81
2016-08-28T07:18:25.741Z,81.38
2016-08-28T07:19:34.931Z,81.46
2016-08-28T07:20:32.698Z,81.57
2016-08-28T07:21:28.646Z,80.07
2016-08-28T07:22:38.212Z,80.65
2016-08-28T07:23:27.028Z,80.36
2016-08-28T07:24:36.129Z,81.32
2016-08-28T07:25:31.989Z,81.10
2016-08-28T07:27:07.646Z,80.86
2016-08-28T07:27:40.398Z,80.63
2016-08-28T07:28:27.193Z,80.95
2016-08-28T07:30:00.773Z,80.40
2016-08-28T07:30:46.319Z,79.94
2016-08-28T07:32:31.353Z,78.75
2016-08-28T07:33:39.799Z,78.87
2016-08-28T07:34:55.018Z,78.80
2016-08-28T07:40:56.686Z,77.68
2016-08-28T07:42:12.560Z,77.41
2016-08-28T07:42:34.976Z,77.57
2016-08-28T07:45:01.570Z,74.18
2016-08-28T07:45:21.829Z,74.56
2016-08-28T07:48:35.856Z,75.38
2016-08-28T07:50:57.984Z,71.03
2016-08-28T07:51:54.741Z,70.48
2016-08-28T07:53:49.512Z,69.95
2016-08-28T07:54:42.603Z,69.78
2016-08-28T07:57:45.852Z,70.28
2016-08-28T08:00:31.472Z,67.73
2016-08-28T08:01:22.242Z,67.63
2016-08-28T08:04:50.865Z,67.44
2016-08-28T08:05:45.469Z,66.15
2016-08-28T08:07:29.480Z,67.47
2016-08-28T08:16:37.593Z,66.84
2016-08-28T08:20:59.288Z,66.35
2016-08-28T08:21:29.392Z,65.07
2016-08-28T08:22:32.404Z,65.05
2016-08-28T08:27:38.000Z,62.23
2016-08-28T08:28:25.881Z,62.19
2016-08-28T08:29:25.860Z,61.19
2016-08-28T08:36:04.347Z,62.76
2016-08-28T08:42:24.780Z,58.04
2016-08-28T08:42:30.608Z,57.44
2016-08-28T08:43:37.016Z,58.23
2016-08-28T08:44:27.840Z,59.26
2016-08-28T08:47:36.445Z,57.73
2016-08-28T08:49:16.276Z,57.64
2016-08-28T08:55:41.907Z,58.92
2016-08-28T08:56:54.319Z,59.19
2016-08-28T08:57:36.885Z,59.85
2016-08-28T08:58:46.960Z,60.08
2016-08-28T08:59:25.125Z,59.20
2016-08-28T09:00:40.442Z,58.31
2016-08-28T09:01:50.678Z,57.59
2016-08-28T09:02:26.293Z,56.41
2016-08-28T09:05:29.672Z,57.35
2016-08-28T09:08:29.465Z,57.44
2016-08-28T09:09:27.304Z,57.81
2016-08-28T09:11:29.224Z,57.04
2016-08-28T09:12:25.749Z,55.45
2016-08-28T09:12:48.553Z,58.14
2016-08-28T09:14:50.682Z,56.54
2016-08-28T09:15:31.862Z,56.39
2016-08-28T09:16:48.322Z,56.05
2016-08-28T09:17:52.895Z,56.82
2016-08-28T09:19:40.532Z,57.26
2016-08-28T09:20:49.833Z,56.25
2016-08-28T09:22:41.103Z,55.64
2016-08-28T09:23:35.182Z,54.74
2016-08-28T09:24:42.589Z,55.34
2016-08-28T09:26:42.599Z,55.85
2016-08-28T09:26:43.585Z,55.56
2016-08-28T09:27:25.859Z,56.23
2016-08-28T09:29:29.877Z,56.62
2016-08-28T09:30:27.102Z,56.48
2016-08-28T09:31:30.094Z,56.29
2016-08-28T09:32:54.620Z,56.29
2016-08-28T09:33:38.164Z,56.89
2016-08-28T09:35:32.643Z,57.05
2016-08-28T09:37:06.824Z,57.66
2016-08-28T09:37:25.554Z,56.31
2016-08-28T09:38:30.644Z,55.73
2016-08-28T09:39:46.893Z,56.75
2016-08-28T09:40:28.481Z,56.87
2016-08-28T09:41:25.343Z,56.90
2016-08-28T09:46:55.660Z,56.01
2016-08-28T09:47:36.625Z,55.58
2016-08-28T09:48:18.363Z,55.95
2016-08-28T09:50:19.468Z,56.33
2016-08-28T09:50:49.815Z,56.39
2016-08-28T09:51:26.633Z,56.27
2016-08-28T09:52:25.657Z,55.90
2016-08-28T09:53:44.415Z,56.17
2016-08-28T09:54:38.888Z,56.83
2016-08-28T09:55:26.592Z,56.98
2016-08-28T09:56:30.465Z,57.47
2016-08-28T09:57:42.711Z,56.08
2016-08-28T09:59:38.625Z,56.49
2016-08-28T10:02:19.399Z,56.63
2016-08-28T10:02:31.347Z,57.64
2016-08-28T10:03:36.389Z,57.54
2016-08-28T10:04:20.975Z,56.82
2016-08-28T10:05:24.699Z,56.91
2016-08-28T10:07:38.648Z,56.40
2016-08-28T10:08:25.363Z,55.77
2016-08-28T10:09:30.518Z,56.09
2016-08-28T10:10:43.246Z,56.05
2016-08-28T10:11:31.459Z,56.11
2016-08-28T10:13:29.469Z,54.20
2016-08-28T10:14:24.308Z,55.11
2016-08-28T10:15:28.796Z,55.42
2016-08-28T10:16:34.506Z,55.27
2016-08-28T10:17:29.728Z,54.78
2016-08-28T10:18:29.149Z,54.94
2016-08-28T10:22:26.961Z,55.68
2016-08-28T10:24:12.085Z,55.58
2016-08-28T10:24:56.496Z,55.95
2016-08-28T10:25:37.356Z,55.61
2016-08-28T10:26:39.863Z,56.34
2016-08-28T10:27:38.734Z,56.28
2016-08-28T10:29:00.822Z,55.33
2016-08-28T10:32:34.414Z,54.72
2016-08-28T10:33:32.310Z,54.97
2016-08-28T10:34:41.329Z,54.92
2016-08-28T10:35:57.493Z,55.19
2016-08-28T10:37:28.945Z,55.71
2016-08-28T10:37:31.994Z,56.43
2016-08-28T10:38:43.765Z,55.52
2016-08-28T10:39:38.822Z,55.50
2016-08-28T10:40:51.407Z,56.16
2016-08-28T10:41:46.687Z,56.30
2016-08-28T10:42:38.962Z,57.01
2016-08-28T10:44:37.134Z,56.69
2016-08-28T10:46:12.119Z,57.17
2016-08-28T10:47:12.031Z,55.83
2016-08-28T10:49:44.389Z,54.12
2016-08-28T10:50:27.192Z,56.14
2016-08-28T10:50:34.098Z,55.76
2016-08-28T10:53:34.677Z,55.62
2016-08-28T10:54:17.530Z,55.15
2016-08-28T10:54:32.981Z,56.88
2016-08-28T10:55:32.701Z,56.73
2016-08-28T10:57:13.710Z,57.49
2016-08-28T10:57:30.095Z,58.91
2016-08-28T10:58:45.169Z,58.64
2016-08-28T10:59:26.023Z,57.63
2016-08-28T11:00:33.784Z,57.94
2016-08-28T11:05:13.615Z,59.04
2016-08-28T11:05:51.814Z,59.99
2016-08-28T11:07:48.913Z,60.40
2016-08-28T11:07:54.179Z,60.22
2016-08-28T11:08:42.937Z,61.44
2016-08-28T11:10:22.500Z,62.91
2016-08-28T11:12:51.096Z,63.56
2016-08-28T11:13:28.896Z,64.06
2016-08-28T11:14:46.868Z,63.90
2016-08-28T11:16:30.016Z,62.36
2016-08-28T11:16:38.690Z,63.89
2016-08-28T11:17:40.226Z,62.89
2016-08-28T11:19:37.841Z,64.38
2016-08-28T11:20:32.029Z,64.88
2016-08-28T11:21:23.857Z,64.00
2016-08-28T11:22:30.281Z,63.31
2016-08-28T11:23:35.190Z,63.05
2016-08-28T11:24:23.841Z,61.52
2016-08-28T11:25:31.253Z,61.16
2016-08-28T11:27:29.838Z,61.28
2016-08-28T11:27:56.952Z,61.46
2016-08-28T11:28:47.693Z,59.03
2016-08-28T11:29:37.160Z,55.62
2016-08-28T11:30:45.031Z,53.91
2016-08-28T11:31:39.074Z,53.91
2016-08-28T11:32:29.872Z,54.51
2016-08-28T11:33:30.306Z,54.69
2016-08-28T11:34:39.811Z,53.47
2016-08-28T11:35:40.174Z,53.76
2016-08-28T11:36:26.705Z,54.69
2016-08-28T11:37:55.434Z,54.06
2016-08-28T11:39:45.335Z,54.33
2016-08-28T11:44:13.846Z,53.72
2016-08-28T11:47:24.044Z,51.68
2016-08-28T11:51:37.554Z,52.63
2016-08-28T11:54:47.945Z,52.13
2016-08-28T11:56:05.933Z,48.10
2016-08-28T11:56:34.413Z,48.66
2016-08-28T11:58:00.604Z,47.26
2016-08-28T11:58:54.247Z,45.96
2016-08-28T12:00:59.522Z,44.83
2016-08-28T12:01:42.773Z,44.52
2016-08-28T12:07:32.396Z,42.93
2016-08-28T12:07:32.469Z,42.96
2016-08-28T12:09:44.724Z,43.34
2016-08-28T12:10:36.521Z,44.71
2016-08-28T12:13:41.520Z,44.68
2016-08-28T12:14:47.019Z,45.04
2016-08-28T12:15:33.671Z,44.79
2016-08-28T12:16:27.467Z,44.04
2016-08-28T12:17:25.754Z,44.55
2016-08-28T12:18:36.712Z,42.47
2016-08-28T12:19:24.583Z,44.20
2016-08-28T12:20:22.483Z,44.65
2016-08-28T12:21:25.324Z,45.18
2016-08-28T12:22:31.023Z,45.12
2016-08-28T12:23:43.169Z,45.87
2016-08-28T12:24:24.887Z,43.86
2016-08-28T12:26:29.707Z,38.72
2016-08-28T12:27:40.235Z,39.35
2016-08-28T12:28:43.099Z,42.08
2016-08-28T12:29:38.520Z,43.37
2016-08-28T12:30:50.505Z,43.12
2016-08-28T12:31:29.026Z,41.22
2016-08-28T12:32:31.091Z,40.97
2016-08-28T12:33:20.549Z,41.87
2016-08-28T12:34:26.619Z,42.41
2016-08-28T12:36:34.298Z,44.06
2016-08-28T12:37:34.241Z,44.48
2016-08-28T12:38:30.370Z,42.18
2016-08-28T12:40:35.830Z,42.68
2016-08-28T12:41:48.101Z,43.23
2016-08-28T12:42:58.102Z,42.48
2016-08-28T12:43:55.145Z,43.10
2016-08-28T12:44:41.040Z,43.90
2016-08-28T12:45:29.791Z,44.20
2016-08-28T12:46:43.229Z,44.68
2016-08-28T12:47:34.074Z,44.51
2016-08-28T12:49:38.324Z,43.05
2016-08-28T12:50:52.184Z,38.81
2016-08-28T12:51:31.774Z,39.50
2016-08-28T12:53:33.070Z,40.54
2016-08-28T12:56:53.154Z,40.47
2016-08-28T12:57:25.133Z,40.00
2016-08-28T12:58:28.744Z,40.38
2016-08-28T12:59:59.562Z,40.43
2016-08-28T13:34:36.779Z,37.73
2016-08-28T13:35:30.383Z,37.83
2016-08-28T13:36:43.848Z,37.06
2016-08-28T13:37:47.379Z,36.60
2016-08-28T13:38:28.549Z,36.92
2016-08-28T13:40:48.015Z,36.68
2016-08-28T13:41:25.083Z,37.41
2016-08-28T13:42:58.808Z,37.48
2016-08-28T13:45:46.615Z,40.35
2016-08-28T13:46:38.619Z,39.09
2016-08-28T13:47:39.958Z,39.32
2016-08-28T13:48:52.209Z,39.70
2016-08-28T13:49:48.899Z,40.65
2016-08-28T13:53:37.729Z,37.38
2016-08-28T13:53:48.408Z,38.44
2016-08-28T13:54:49.930Z,37.57
2016-08-28T14:09:14.635Z,40.24
2016-08-28T14:09:47.691Z,40.78
2016-08-28T14:19:30.760Z,40.56
2016-08-28T14:20:55.310Z,42.21
2016-08-28T14:21:35.931Z,42.28
2016-08-28T14:22:25.717Z,41.59
2016-08-28T14:24:38.555Z,39.72
2016-08-28T14:25:40.698Z,40.45
2016-08-28T14:26:34.499Z,40.09
2016-08-28T14:27:39.884Z,39.65
2016-08-28T14:28:20.021Z,40.44
2016-08-28T14:29:25.702Z,40.76
2016-08-28T14:30:24.207Z,40.16
2016-08-28T14:31:25.257Z,40.96
2016-08-28T14:32:23.710Z,41.31
2016-08-28T14:33:23.117Z,41.53
2016-08-28T14:35:27.481Z,43.14
2016-08-28T14:36:22.816Z,42.23
2016-08-28T14:37:22.786Z,42.55
2016-08-28T14:38:22.501Z,43.15
2016-08-28T14:39:22.252Z,42.76
2016-08-28T14:40:21.881Z,42.99
2016-08-28T14:41:22.499Z,43.28
2016-08-28T14:42:18.140Z,43.96
2016-08-28T14:43:18.531Z,44.16
2016-08-28T14:44:24.596Z,41.89
2016-08-28T14:46:29.617Z,42.48
2016-08-28T14:47:23.953Z,43.06
2016-08-28T14:48:18.201Z,43.56
2016-08-28T14:49:30.572Z,44.32
2016-08-28T14:50:38.314Z,42.72
2016-08-28T14:51:30.452Z,43.16
2016-08-28T14:52:20.021Z,43.19
2016-08-28T14:53:28.317Z,43.88
2016-08-28T14:54:17.968Z,43.69
2016-08-28T14:55:23.342Z,43.79
2016-08-28T14:56:29.361Z,43.72
2016-08-28T14:57:23.717Z,43.24
2016-08-28T14:58:30.795Z,42.95
2016-08-28T14:59:26.416Z,43.75
2016-08-28T15:00:32.905Z,45.14
2016-08-28T15:01:24.159Z,44.37
2016-08-28T15:02:24.217Z,41.46
2016-08-28T15:03:22.134Z,41.57
2016-08-28T15:04:23.288Z,41.77
2016-08-28T15:05:17.919Z,41.40
2016-08-28T15:06:17.764Z,41.50
2016-08-28T15:07:17.125Z,43.16
2016-08-28T15:08:17.756Z,44.48
2016-08-28T15:09:18.207Z,44.22
2016-08-28T15:10:19.538Z,43.80
2016-08-28T15:11:23.007Z,42.23
2016-08-28T15:12:26.865Z,42.28
2016-08-28T15:13:18.441Z,41.80
2016-08-28T15:14:17.626Z,42.21
2016-08-28T15:15:26.130Z,43.61
2016-08-28T15:16:17.361Z,44.97
2016-08-28T15:17:09.569Z,42.66
2016-08-28T15:18:10.898Z,45.70
2016-08-28T15:19:08.961Z,45.61
2016-08-28T15:20:09.272Z,46.02
2016-08-28T15:21:14.195Z,44.55
2016-08-28T15:22:10.619Z,43.01
2016-08-28T15:23:10.831Z,44.43
2016-08-28T15:24:13.072Z,45.86
2016-08-28T15:25:08.593Z,45.38
2016-08-28T15:26:09.520Z,44.38
2016-08-28T15:27:09.016Z,45.40
2016-08-28T15:28:08.819Z,46.07
2016-08-28T15:29:09.619Z,47.69
2016-08-28T15:30:09.755Z,45.46
2016-08-28T15:31:12.348Z,45.85
2016-08-28T15:32:09.974Z,45.76
2016-08-28T15:33:11.006Z,46.16
2016-08-28T15:34:10.296Z,46.34
2016-08-28T15:35:10.201Z,45.83
2016-08-28T15:36:12.951Z,44.57
2016-08-28T15:37:08.166Z,46.50
2016-08-28T15:38:09.095Z,46.28
2016-08-28T15:39:09.409Z,46.01
2016-08-28T15:40:08.699Z,43.03
2016-08-28T15:41:09.322Z,42.78
2016-08-28T15:42:09.157Z,44.78
2016-08-28T15:43:10.360Z,43.90
2016-08-28T15:44:09.752Z,39.27
2016-08-28T15:45:09.247Z,39.27
2016-08-28T15:46:08.745Z,40.75
2016-08-28T15:47:11.105Z,41.48
2016-08-28T15:48:09.065Z,40.30
2016-08-28T15:49:09.277Z,36.16
2016-08-28T15:50:10.614Z,39.43
2016-08-28T15:51:11.881Z,37.08
2016-08-28T15:52:11.461Z,34.65
2016-08-28T15:53:10.124Z,37.69
2016-08-28T15:54:09.415Z,37.95
2016-08-28T15:55:08.807Z,37.46
2016-08-28T15:56:09.430Z,36.80
2016-08-28T15:57:09.538Z,36.85
2016-08-28T15:58:07.975Z,34.88
2016-08-28T15:59:09.656Z,36.30
2016-08-28T16:00:09.120Z,36.49
2016-08-28T16:01:22.982Z,35.73
2016-08-28T16:02:17.987Z,36.54
2016-08-28T16:03:32.116Z,36.45
2016-08-28T16:04:23.906Z,36.78
2016-08-28T16:05:27.688Z,37.35
2016-08-28T16:06:32.794Z,35.12
2016-08-28T16:07:18.125Z,37.01
2016-08-28T16:08:29.229Z,37.01
2016-08-28T16:09:18.124Z,37.91
2016-08-28T16:10:11.571Z,37.99
2016-08-28T16:11:08.609Z,38.07
2016-08-28T16:12:09.026Z,38.72
2016-08-28T16:13:08.520Z,38.39
2016-08-28T16:14:08.836Z,38.11
2016-08-28T16:15:16.732Z,38.63
2016-08-28T16:16:13.369Z,38.99
2016-08-28T16:17:13.054Z,38.58
2016-08-28T16:18:16.149Z,39.46
2016-08-28T16:19:15.028Z,36.03
2016-08-28T16:20:17.798Z,38.45
2016-08-28T16:21:15.872Z,39.19
2016-08-28T16:22:28.081Z,39.04
2016-08-28T16:23:12.704Z,40.79
2016-08-28T16:24:14.555Z,40.99
2016-08-28T16:25:17.008Z,40.38
2016-08-28T16:26:15.337Z,42.26
2016-08-28T16:27:14.679Z,42.02
2016-08-28T16:28:17.798Z,42.41
2016-08-28T16:29:17.286Z,42.82
2016-08-28T16:30:20.425Z,42.87
2016-08-28T16:31:12.684Z,43.55
2016-08-28T16:32:12.207Z,42.30
2016-08-28T16:33:15.772Z,42.29
2016-08-28T16:34:12.252Z,41.78
2016-08-28T16:35:12.685Z,42.15
2016-08-28T16:36:15.144Z,40.41
2016-08-28T16:37:18.681Z,43.39
2016-08-28T16:38:13.529Z,44.05
2016-08-28T16:40:20.675Z,44.99
2016-08-28T16:41:12.732Z,43.28
2016-08-28T16:42:34.271Z,43.87
2016-08-28T16:42:49.824Z,44.36
2016-08-28T16:47:37.132Z,45.07
2016-08-28T16:48:23.217Z,44.41
2016-08-28T16:48:58.736Z,44.97
2016-08-28T16:49:24.695Z,45.33
2016-08-28T16:53:47.416Z,47.74
2016-08-28T16:54:28.752Z,47.58
2016-08-28T16:58:48.455Z,49.18
2016-08-28T17:01:31.475Z,50.21
2016-08-28T17:02:25.379Z,50.30
2016-08-28T17:04:33.076Z,51.12
2016-08-28T17:05:36.350Z,52.22
2016-08-28T17:06:40.490Z,52.64
2016-08-28T17:08:30.947Z,53.03
2016-08-28T17:09:30.399Z,53.00
2016-08-28T17:11:25.768Z,52.72
2016-08-28T17:12:38.407Z,53.36
2016-08-28T17:13:49.238Z,53.46
2016-08-28T17:14:34.204Z,53.85
2016-08-28T17:16:46.943Z,53.90
2016-08-28T17:17:32.109Z,52.95
2016-08-28T17:18:26.812Z,53.19
2016-08-28T17:21:36.978Z,52.10
2016-08-28T17:24:42.671Z,54.59
2016-08-28T17:25:31.559Z,55.33
2016-08-28T17:26:49.843Z,55.81
2016-08-28T17:27:59.579Z,55.78
2016-08-28T17:28:49.053Z,55.76
2016-08-28T17:29:23.978Z,56.02
2016-08-28T17:30:53.011Z,56.19
2016-08-28T17:36:58.423Z,56.06
2016-08-28T17:37:26.047Z,56.27
2016-08-28T17:38:39.065Z,56.36
2016-08-28T17:43:33.891Z,58.22
2016-08-28T17:47:27.247Z,59.48
2016-08-28T17:48:24.747Z,60.03
2016-08-28T17:49:42.746Z,60.13
2016-08-28T17:50:22.478Z,60.30
2016-08-28T17:51:36.470Z,60.68
2016-08-28T17:52:46.659Z,61.30
2016-08-28T17:53:34.527Z,61.59
2016-08-28T17:54:29.223Z,60.91
2016-08-28T17:55:55.344Z,61.22
2016-08-28T17:56:33.670Z,61.37
2016-08-28T17:57:29.878Z,61.61
2016-08-28T17:58:34.024Z,61.50
2016-08-28T17:59:28.726Z,61.53
2016-08-28T18:00:38.590Z,62.18
2016-08-28T18:04:12.712Z,62.75
2016-08-28T18:04:48.174Z,63.16
2016-08-28T18:06:51.294Z,63.57
2016-08-28T18:07:24.493Z,64.02
2016-08-28T18:08:36.729Z,64.90
2016-08-28T18:11:09.842Z,65.18
2016-08-28T18:11:34.775Z,64.83
2016-08-28T18:11:54.326Z,65.44
2016-08-28T18:12:34.203Z,65.66
2016-08-28T18:13:56.231Z,66.19
2016-08-28T18:14:54.214Z,66.53
2016-08-28T18:15:34.882Z,66.81
2016-08-28T18:18:48.702Z,66.87
2016-08-28T18:19:39.554Z,67.34
2016-08-28T18:24:26.518Z,68.21
2016-08-28T18:24:30.980Z,68.34
2016-08-28T18:25:48.066Z,68.75
2016-08-28T18:26:39.395Z,68.82
2016-08-28T18:27:31.840Z,70.06
2016-08-28T18:28:56.698Z,69.81
2016-08-28T18:31:26.481Z,70.80
2016-08-28T18:32:48.849Z,71.11
2016-08-28T18:34:12.728Z,70.86
2016-08-28T18:34:42.931Z,70.67
2016-08-28T18:35:31.925Z,71.06
2016-08-28T18:40:53.243Z,71.19
2016-08-28T18:41:28.691Z,71.93
2016-08-28T18:42:41.862Z,72.73
2016-08-28T18:43:26.932Z,73.35
2016-08-28T18:51:32.812Z,74.27
2016-08-28T18:52:55.426Z,74.24
2016-08-28T18:53:37.308Z,74.16
2016-08-28T18:54:50.410Z,74.14
2016-08-28T18:55:50.211Z,74.08
2016-08-28T18:56:34.133Z,74.02
2016-08-28T18:57:43.655Z,74.37
2016-08-28T19:01:36.311Z,75.51
2016-08-28T19:09:57.048Z,76.85
2016-08-28T19:10:46.893Z,77.15
2016-08-28T19:12:35.713Z,77.22
2016-08-28T19:13:12.729Z,77.20
2016-08-28T19:14:23.867Z,77.55
2016-08-28T19:14:39.234Z,77.37
2016-08-28T19:16:33.001Z,77.35
2016-08-28T19:18:59.110Z,76.91
2016-08-28T19:19:32.161Z,77.25
2016-08-28T19:20:45.545Z,76.99
2016-08-28T19:22:41.806Z,77.58
2016-08-28T19:23:24.326Z,77.22
2016-08-28T19:24:34.190Z,77.12
2016-08-28T19:25:24.458Z,77.50
2016-08-28T19:26:34.261Z,76.23
2016-08-28T19:28:27.586Z,76.39
2016-08-28T19:29:23.758Z,76.39
2016-08-28T19:30:46.052Z,76.92
2016-08-28T19:32:09.723Z,76.50
2016-08-28T19:32:45.769Z,77.63
2016-08-28T19:33:51.853Z,77.17
2016-08-28T19:34:19.169Z,76.84
2016-08-28T19:35:39.913Z,76.95
2016-08-28T19:36:33.276Z,77.10
2016-08-28T19:37:25.312Z,77.32
2016-08-28T19:38:54.312Z,77.84
2016-08-28T19:39:25.122Z,78.06
2016-08-28T19:41:32.988Z,77.50
2016-08-28T19:42:49.813Z,77.90
2016-08-28T19:43:23.444Z,77.92
2016-08-28T19:44:32.770Z,77.08
2016-08-28T19:46:47.569Z,75.70
2016-08-28T19:47:39.324Z,75.62
2016-08-28T19:48:34.001Z,75.83
2016-08-28T19:49:36.203Z,75.86
2016-08-28T19:50:25.042Z,75.49
2016-08-28T19:51:44.977Z,75.64
2016-08-28T19:52:31.026Z,75.53
2016-08-28T19:54:12.923Z,75.37
2016-08-28T19:56:44.728Z,75.13
2016-08-28T19:57:49.965Z,76.47
2016-08-28T19:58:44.631Z,76.97
2016-08-28T19:59:27.730Z,78.16
2016-08-28T20:01:39.319Z,76.66
2016-08-28T20:02:24.219Z,76.26
2016-08-28T20:03:50.657Z,76.53
2016-08-28T20:04:40.118Z,76.60
2016-08-28T20:05:33.707Z,76.76
2016-08-28T20:08:54.649Z,77.12
2016-08-28T20:09:29.468Z,77.08
2016-08-28T20:10:07.561Z,77.21
2016-08-28T20:10:24.021Z,76.34
2016-08-28T20:10:40.436Z,77.42
2016-08-28T20:11:54.251Z,77.68
2016-08-28T20:12:40.809Z,77.30
2016-08-28T20:14:01.467Z,77.31
2016-08-28T20:14:27.372Z,76.72
2016-08-28T20:15:54.696Z,76.41
2016-08-28T20:16:39.989Z,75.71
2016-08-28T20:17:32.150Z,76.16
2016-08-28T20:18:25.788Z,76.77
2016-08-28T20:19:23.205Z,76.27
2016-08-28T20:20:27.333Z,76.39
2016-08-28T20:21:25.350Z,76.19
2016-08-28T20:22:35.203Z,75.99
2016-08-28T20:24:12.440Z,77.07
2016-08-28T20:25:26.298Z,76.34
2016-08-28T20:25:30.756Z,76.97
2016-08-28T20:26:36.494Z,76.52
2016-08-28T20:27:41.473Z,76.84
2016-08-28T20:28:33.722Z,76.44
2016-08-28T20:29:27.017Z,75.71
2016-08-28T20:30:31.077Z,76.66
2016-08-28T20:31:42.053Z,76.75
2016-08-28T20:32:33.541Z,77.17
2016-08-28T20:34:10.829Z,76.91
2016-08-28T20:34:55.209Z,77.02
2016-08-28T20:35:29.286Z,76.89
2016-08-28T20:36:30.392Z,76.90
2016-08-28T20:37:34.002Z,76.37
2016-08-28T20:40:31.329Z,76.18
2016-08-28T20:41:40.834Z,76.52
2016-08-28T20:42:37.497Z,76.79
2016-08-28T20:43:26.567Z,77.02
2016-08-28T20:46:36.973Z,76.76
2016-08-28T20:50:53.943Z,77.73
2016-08-28T21:13:30.152Z,77.09
2016-08-28T21:17:43.510Z,78.22
2016-08-28T21:18:48.034Z,77.85
2016-08-28T21:19:38.224Z,78.23
2016-08-28T21:20:41.039Z,78.11
2016-08-28T21:21:41.584Z,78.10
2016-08-28T21:22:33.499Z,78.88
2016-08-28T21:23:41.215Z,78.78
2016-08-28T21:24:51.681Z,78.61
2016-08-28T21:25:40.195Z,79.01